createdAt,value
2018-11-04T00:00:24.415Z,9.18
2018-11-04T00:04:31.087Z,9.17
2018-11-04T00:08:37.770Z,9.28
2018-11-04T00:12:44.530Z,9.10
2018-11-04T00:16:51.283Z,9.09
2018-11-04T00:20:57.996Z,9.05
2018-11-04T00:25:04.718Z,9.02
2018-11-04T00:29:11.389Z,8.93
2018-11-04T00:33:18.276Z,9.03
2018-11-04T00:37:24.944Z,8.97
2018-11-04T00:41:34.671Z,8.85
2018-11-04T00:45:41.406Z,8.92
2018-11-04T00:49:48.143Z,8.91
2018-11-04T00:53:54.820Z,8.91
2018-11-04T00:58:01.523Z,8.84
2018-11-04T01:02:08.246Z,8.80
2018-11-04T01:06:14.989Z,8.74
2018-11-04T01:10:21.677Z,8.78
2018-11-04T01:14:28.460Z,8.77
2018-11-04T01:18:35.121Z,8.75
2018-11-04T01:22:41.817Z,8.71
2018-11-04T01:26:48.635Z,8.66
2018-11-04T01:30:55.422Z,8.74
2018-11-04T01:35:02.041Z,8.77
2018-11-04T01:39:10.644Z,8.74
2018-11-04T01:43:17.383Z,8.73
2018-11-04T01:47:24.087Z,8.77
2018-11-04T01:51:30.942Z,8.79
2018-11-04T01:55:37.580Z,8.90
2018-11-04T01:59:44.302Z,8.89
2018-11-04T02:03:51.005Z,8.88
2018-11-04T02:07:57.695Z,9.01
2018-11-04T02:12:04.459Z,8.93
2018-11-04T02:16:11.154Z,8.93
2018-11-04T02:20:17.858Z,8.95
2018-11-04T02:24:24.666Z,9.00
2018-11-04T02:28:31.283Z,9.05
2018-11-04T02:32:37.996Z,9.02
2018-11-04T02:36:44.706Z,8.97
2018-11-04T02:40:51.435Z,9.03
2018-11-04T02:44:58.117Z,9.10
2018-11-04T02:49:04.858Z,9.10
2018-11-04T02:53:11.562Z,9.01
2018-11-04T02:57:18.337Z,9.08
2018-11-04T03:01:25.061Z,9.03
2018-11-04T03:05:31.664Z,9.09
2018-11-04T03:09:38.390Z,9.06
2018-11-04T03:13:45.074Z,9.05
2018-11-04T03:17:51.872Z,9.06
2018-11-04T03:21:58.569Z,9.11
2018-11-04T03:26:05.261Z,9.06
2018-11-04T03:30:11.954Z,9.05
2018-11-04T03:34:19.041Z,9.06
2018-11-04T03:38:25.666Z,9.14
2018-11-04T03:42:32.352Z,9.25
2018-11-04T03:46:39.125Z,9.16
2018-11-04T03:50:45.815Z,9.23
2018-11-04T03:54:52.497Z,9.28
2018-11-04T03:58:59.225Z,9.38
2018-11-04T04:03:06.375Z,9.35
2018-11-04T04:07:13.069Z,9.38
2018-11-04T04:11:19.832Z,9.35
2018-11-04T04:15:26.416Z,9.33
2018-11-04T04:19:33.119Z,9.45
2018-11-04T04:23:41.015Z,9.43
2018-11-04T04:27:47.675Z,9.40
2018-11-04T04:31:54.359Z,9.46
2018-11-04T04:36:01.145Z,9.44
2018-11-04T04:40:08.159Z,9.44
2018-11-04T04:44:14.779Z,9.52
2018-11-04T04:48:21.585Z,9.48
2018-11-04T04:52:28.258Z,9.43
2018-11-04T04:56:34.947Z,9.49
2018-11-04T05:00:41.798Z,9.54
2018-11-04T05:04:48.451Z,9.52
2018-11-04T05:08:55.153Z,9.59
2018-11-04T05:13:01.812Z,9.60
2018-11-04T05:17:08.576Z,9.56
2018-11-04T05:21:15.367Z,9.62
2018-11-04T05:25:21.966Z,9.59
2018-11-04T05:29:28.636Z,9.55
2018-11-04T05:33:35.386Z,9.53
2018-11-04T05:37:42.048Z,9.41
2018-11-04T05:41:48.814Z,9.54
2018-11-04T05:45:56.270Z,9.60
2018-11-04T05:50:02.988Z,9.56
2018-11-04T05:54:09.655Z,9.59
2018-11-04T05:58:16.336Z,9.48
2018-11-04T06:02:23.300Z,9.58
2018-11-04T06:06:30.015Z,9.56
2018-11-04T06:10:36.663Z,9.55
2018-11-04T06:14:43.488Z,9.52
2018-11-04T06:18:50.096Z,9.60
2018-11-04T06:22:56.780Z,9.49
2018-11-04T06:27:03.455Z,9.58
2018-11-04T06:31:10.175Z,9.49
2018-11-04T06:35:16.885Z,9.63
2018-11-04T06:39:23.604Z,9.62
2018-11-04T06:43:30.306Z,9.75
2018-11-04T06:47:37.085Z,9.55
2018-11-04T06:51:43.766Z,9.68
2018-11-04T06:55:50.672Z,9.76
2018-11-04T06:59:57.540Z,9.74
2018-11-04T07:04:24.694Z,9.75
2018-11-04T07:08:31.310Z,9.81
2018-11-04T07:12:38.197Z,9.89
2018-11-04T07:16:45.640Z,9.99
2018-11-04T07:20:52.373Z,9.89
2018-11-04T07:24:59.095Z,10.01
2018-11-04T07:29:06.106Z,10.07
2018-11-04T07:33:13.049Z,10.05
2018-11-04T07:37:19.780Z,10.05
2018-11-04T07:41:26.476Z,10.11
2018-11-04T07:45:33.234Z,10.01
2018-11-04T07:49:39.843Z,10.03
2018-11-04T07:53:47.039Z,9.97
2018-11-04T07:57:53.726Z,10.03
2018-11-04T08:02:00.419Z,10.02
2018-11-04T08:06:07.384Z,10.31
2018-11-04T08:10:14.999Z,10.23
2018-11-04T08:14:21.688Z,10.22
2018-11-04T08:18:28.364Z,10.26
2018-11-04T08:22:35.156Z,10.35
2018-11-04T08:26:41.764Z,10.44
2018-11-04T08:30:48.509Z,10.30
2018-11-04T08:34:55.365Z,10.21
2018-11-04T08:39:02.062Z,10.23
2018-11-04T08:43:08.915Z,10.20
2018-11-04T08:47:16.031Z,10.29
2018-11-04T08:51:22.919Z,10.17
2018-11-04T08:55:29.546Z,10.18
2018-11-04T08:59:36.717Z,10.33
2018-11-04T09:03:43.416Z,10.40
2018-11-04T09:07:50.421Z,10.35
2018-11-04T09:11:57.146Z,10.45
2018-11-04T09:16:03.803Z,10.48
2018-11-04T09:20:16.003Z,10.54
2018-11-04T09:24:22.713Z,10.43
2018-11-04T09:28:29.403Z,10.67
2018-11-04T09:32:36.215Z,10.63
2018-11-04T09:36:42.800Z,10.70
2018-11-04T09:40:49.616Z,10.65
2018-11-04T09:44:56.285Z,10.80
2018-11-04T09:49:02.994Z,10.86
2018-11-04T09:53:09.725Z,10.78
2018-11-04T09:57:16.500Z,10.89
2018-11-04T10:01:23.185Z,10.92
2018-11-04T10:05:29.969Z,10.90
2018-11-04T10:09:36.665Z,10.80
2018-11-04T10:13:43.424Z,10.90
2018-11-04T10:17:50.124Z,10.90
2018-11-04T10:21:56.901Z,10.96
2018-11-04T10:26:03.606Z,11.05
2018-11-04T10:30:16.314Z,11.21
2018-11-04T10:34:22.936Z,11.14
2018-11-04T10:38:29.613Z,11.25
2018-11-04T10:42:36.438Z,11.18
2018-11-04T10:46:43.135Z,11.24
2018-11-04T10:50:49.930Z,11.38
2018-11-04T10:54:56.670Z,11.24
2018-11-04T10:59:03.352Z,11.38
2018-11-04T11:03:10.049Z,11.34
2018-11-04T11:07:19.180Z,11.39
2018-11-04T11:11:23.442Z,11.35
2018-11-04T11:15:30.117Z,11.48
2018-11-04T11:19:36.777Z,11.52
2018-11-04T11:23:43.505Z,11.73
2018-11-04T11:27:50.185Z,11.84
2018-11-04T11:31:56.927Z,11.91
2018-11-04T11:36:03.725Z,11.90
2018-11-04T11:40:10.969Z,12.10
2018-11-04T11:44:17.626Z,12.08
2018-11-04T11:48:24.296Z,11.97
2018-11-04T11:52:31.055Z,12.19
2018-11-04T11:56:37.828Z,12.24
2018-11-04T12:00:44.735Z,12.24
2018-11-04T12:04:51.512Z,12.25
2018-11-04T12:08:58.264Z,12.43
2018-11-04T12:13:05.111Z,12.25
2018-11-04T12:17:11.840Z,12.71
2018-11-04T12:21:18.741Z,12.38
2018-11-04T12:25:25.673Z,12.34
2018-11-04T12:29:40.373Z,12.26
2018-11-04T12:33:47.193Z,12.33
2018-11-04T12:37:54.010Z,12.53
2018-11-04T12:42:01.804Z,12.51
2018-11-04T12:46:08.523Z,12.55
2018-11-04T12:50:15.672Z,12.56
2018-11-04T12:54:25.697Z,12.48
2018-11-04T12:58:32.452Z,12.40
2018-11-04T13:02:39.214Z,12.36
2018-11-04T13:06:45.934Z,12.54
2018-11-04T13:10:52.745Z,12.37
2018-11-04T13:14:59.533Z,12.36
2018-11-04T13:19:16.601Z,12.24
2018-11-04T13:23:26.581Z,12.40
2018-11-04T13:27:33.461Z,12.43
2018-11-04T13:31:40.299Z,12.40
2018-11-04T13:35:50.382Z,12.52
2018-11-04T13:39:58.859Z,12.53
2018-11-04T13:44:04.028Z,12.55
2018-11-04T13:48:10.769Z,12.51
2018-11-04T13:52:17.602Z,12.59
2018-11-04T13:56:24.305Z,12.56
2018-11-04T14:00:31.052Z,12.60
2018-11-04T14:04:37.826Z,12.53
2018-11-04T14:08:45.223Z,12.49
2018-11-04T14:12:52.812Z,12.40
2018-11-04T14:17:02.432Z,12.37
2018-11-04T14:21:09.186Z,12.34
2018-11-04T14:25:15.886Z,12.40
2018-11-04T14:29:22.853Z,12.40
2018-11-04T14:33:29.626Z,12.37
2018-11-04T14:37:36.490Z,12.30
2018-11-04T14:41:43.213Z,12.24
2018-11-04T14:45:50.293Z,12.28
2018-11-04T14:49:56.940Z,12.23
2018-11-04T14:54:03.930Z,12.30
2018-11-04T14:58:11.050Z,12.29
2018-11-04T15:02:18.150Z,12.36
2018-11-04T15:06:26.124Z,12.34
2018-11-04T15:10:33.096Z,12.21
2018-11-04T15:14:39.997Z,12.24
2018-11-04T15:18:47.192Z,12.23
2018-11-04T15:22:53.911Z,12.20
2018-11-04T15:27:03.258Z,12.17
2018-11-04T15:31:08.503Z,12.23
2018-11-04T15:35:16.820Z,12.18
2018-11-04T15:39:23.898Z,12.15
2018-11-04T15:43:30.966Z,12.12
2018-11-04T15:47:38.198Z,12.16
2018-11-04T15:51:44.877Z,12.19
2018-11-04T15:55:51.651Z,12.15
2018-11-04T15:59:58.342Z,12.18
2018-11-04T16:04:05.020Z,12.19
2018-11-04T16:08:11.653Z,12.23
2018-11-04T16:12:18.432Z,12.17
2018-11-04T16:16:25.514Z,12.22
2018-11-04T16:20:32.214Z,12.20
2018-11-04T16:24:39.019Z,12.14
2018-11-04T16:28:46.227Z,12.21
2018-11-04T16:32:52.956Z,12.18
2018-11-04T16:36:59.785Z,12.24
2018-11-04T16:41:06.642Z,12.14
2018-11-04T16:45:15.734Z,12.12
2018-11-04T16:49:22.404Z,12.12
2018-11-04T16:53:29.209Z,12.20
2018-11-04T16:57:35.974Z,12.07
2018-11-04T17:01:42.772Z,12.02
2018-11-04T17:05:49.591Z,11.96
2018-11-04T17:09:56.203Z,11.98
2018-11-04T17:14:03.049Z,11.99
2018-11-04T17:18:09.685Z,11.99
2018-11-04T17:22:16.429Z,11.93
2018-11-04T17:26:23.098Z,11.91
2018-11-04T17:30:29.768Z,11.86
2018-11-04T17:34:36.566Z,11.86
2018-11-04T17:38:43.275Z,11.92
2018-11-04T17:42:50.410Z,11.91
2018-11-04T17:46:57.316Z,11.95
2018-11-04T17:51:04.345Z,11.82
2018-11-04T17:55:12.272Z,11.84
2018-11-04T17:59:20.507Z,11.80
2018-11-04T18:03:27.610Z,11.79
2018-11-04T18:07:35.090Z,11.82
2018-11-04T18:11:42.044Z,11.68
2018-11-04T18:15:48.838Z,11.74
2018-11-04T18:19:55.825Z,11.70
2018-11-04T18:24:02.542Z,11.85
2018-11-04T18:28:09.443Z,11.72
2018-11-04T18:32:16.614Z,11.72
2018-11-04T18:36:23.349Z,11.71
2018-11-04T18:40:30.435Z,11.86
2018-11-04T18:44:37.658Z,11.76
2018-11-04T18:48:46.834Z,11.79
2018-11-04T18:52:53.691Z,11.73
2018-11-04T18:57:00.745Z,11.72
2018-11-04T19:01:07.828Z,11.71
2018-11-04T19:05:15.031Z,11.63
2018-11-04T19:09:22.126Z,11.59
2018-11-04T19:13:29.167Z,11.62
2018-11-04T19:17:36.368Z,11.57
2018-11-04T19:21:43.452Z,11.53
2018-11-04T19:25:51.217Z,11.59
2018-11-04T19:29:58.171Z,11.55
2018-11-04T19:34:05.110Z,11.68
2018-11-04T19:38:12.277Z,11.71
2018-11-04T19:42:21.345Z,11.48
2018-11-04T19:46:28.791Z,11.62
2018-11-04T19:50:33.799Z,11.60
2018-11-04T19:54:40.533Z,11.57
2018-11-04T19:58:48.920Z,11.51
2018-11-04T20:02:54.466Z,11.60
2018-11-04T20:07:01.607Z,11.51
2018-11-04T20:11:08.585Z,11.51
2018-11-04T20:15:16.077Z,11.45
2018-11-04T20:19:40.555Z,11.40
2018-11-04T20:23:47.453Z,11.43
2018-11-04T20:27:57.976Z,11.44
2018-11-04T20:32:21.995Z,11.40
2018-11-04T20:36:28.983Z,11.35
2018-11-04T20:41:26.211Z,11.50
2018-11-04T20:45:09.998Z,11.50
2018-11-04T20:49:47.907Z,11.49
2018-11-04T20:53:59.155Z,11.55
2018-11-04T20:58:12.893Z,11.38
2018-11-04T21:02:20.311Z,11.40
2018-11-04T21:06:27.545Z,11.44
2018-11-04T21:10:34.728Z,11.39
2018-11-04T21:14:47.668Z,11.34
2018-11-04T21:18:54.469Z,11.71
2018-11-04T21:23:01.124Z,11.68
2018-11-04T21:27:09.133Z,11.66
2018-11-04T21:31:15.815Z,11.63
2018-11-04T21:35:22.467Z,11.60
2018-11-04T21:39:29.212Z,11.60
2018-11-04T21:43:36.321Z,11.67
2018-11-04T21:47:43.277Z,11.54
2018-11-04T21:51:50.639Z,11.42
2018-11-04T21:55:57.524Z,11.39
2018-11-04T22:00:04.222Z,11.40
2018-11-04T22:04:11.034Z,11.40
2018-11-04T22:08:18.538Z,11.43
2018-11-04T22:12:25.237Z,11.39
2018-11-04T22:16:32.003Z,11.44
2018-11-04T22:20:38.706Z,11.46
2018-11-04T22:24:46.384Z,11.50
2018-11-04T22:28:53.301Z,11.49
2018-11-04T22:33:00.097Z,11.54
2018-11-04T22:37:07.225Z,11.55
2018-11-04T22:41:13.930Z,11.56
2018-11-04T22:45:20.716Z,11.59
2018-11-04T22:49:27.794Z,11.62
2018-11-04T22:53:34.479Z,11.58
2018-11-04T22:57:41.207Z,11.56
2018-11-04T23:01:47.904Z,11.54
2018-11-04T23:05:54.641Z,11.61
2018-11-04T23:10:01.221Z,11.56
2018-11-04T23:14:07.902Z,11.60
2018-11-04T23:18:14.557Z,11.64
2018-11-04T23:22:21.225Z,11.64
2018-11-04T23:26:27.890Z,11.54
2018-11-04T23:30:34.545Z,11.61
2018-11-04T23:34:41.261Z,11.64
2018-11-04T23:38:47.917Z,11.65
2018-11-04T23:42:54.625Z,11.66
2018-11-04T23:47:01.327Z,11.59
2018-11-04T23:51:08.219Z,11.67
2018-11-04T23:55:15.631Z,11.59
2018-11-04T23:59:22.792Z,11.65
